Time;durP1;ratioP1;P1;durP2;ratioP2;P2;SDS_P1;SDS_P2;PMS_P1;PMS_P2;Temp;Humidity;BMP_temperature;BMP_pressure;BME280_temperature;BME280_humidity;BME280_pressure;Samples;Min_cycle;Max_cycle;Signal;HPM_P1;HPM_P2
2021/08/17 00:01:44;;;;;;;8.20;2.08;;;;;;;16.48;100.00;95565.75;6068732;23;20058;-96
2021/08/17 00:04:10;;;;;;;5.38;2.30;;;;;;;16.29;100.00;95535.56;6068623;23;20058;-96
2021/08/17 00:06:35;;;;;;;4.18;2.35;;;;;;;16.79;100.00;95591.13;6068681;23;20003;-96
2021/08/17 00:09:01;;;;;;;4.88;2.13;;;;;;;16.60;100.00;95552.66;6068699;23;20013;-96
2021/08/17 00:11:27;;;;;;;3.47;1.83;;;;;;;16.45;100.00;95529.16;6092329;23;20010;-95
2021/08/17 00:13:54;;;;;;;6.65;2.47;;;;;;;16.63;100.00;95579.06;6068444;23;20010;-96
2021/08/17 00:16:19;;;;;;;4.38;2.25;;;;;;;15.94;100.00;95460.53;6068369;23;20030;-96
2021/08/17 00:18:45;;;;;;;5.90;2.63;;;;;;;15.96;100.00;95447.03;6092494;23;20062;-96
2021/08/17 00:21:13;;;;;;;3.28;2.30;;;;;;;15.91;100.00;95433.41;6092202;23;20039;-96
2021/08/17 00:23:38;;;;;;;4.47;2.70;;;;;;;16.23;100.00;95469.88;6068323;23;20006;-96
2021/08/17 00:26:04;;;;;;;5.63;2.53;;;;;;;16.36;100.00;95526.78;6068414;23;20018;-96
2021/08/17 00:28:29;;;;;;;3.78;2.60;;;;;;;16.58;100.00;95590.81;6067909;23;20082;-96
2021/08/17 00:30:55;;;;;;;3.92;2.60;;;;;;;15.92;100.00;95520.50;6092136;23;20368;-96
2021/08/17 00:33:20;;;;;;;3.60;2.75;;;;;;;16.09;100.00;95531.31;6067989;23;20015;-96
2021/08/17 00:35:45;;;;;;;5.43;2.20;;;;;;;16.21;100.00;95551.84;6068280;23;20007;-96
2021/08/17 00:38:12;;;;;;;6.25;2.38;;;;;;;16.27;100.00;95538.09;6067986;23;20070;-96
2021/08/17 00:40:38;;;;;;;3.63;1.90;;;;;;;15.85;100.00;95482.75;6068113;23;20007;-96
2021/08/17 00:43:04;;;;;;;6.32;2.60;;;;;;;16.49;100.00;95575.47;6092015;23;20014;-96
2021/08/17 00:45:30;;;;;;;5.90;2.75;;;;;;;16.68;100.00;95603.66;6068199;23;20042;-96
2021/08/17 00:51:18;;;;;;;7.50;3.08;;;;;;;16.74;100.00;95560.50;6069420;23;20050;-96
2021/08/17 00:53:45;;;;;;;3.90;2.55;;;;;;;16.87;100.00;95546.13;6068276;23;20433;-96
2021/08/17 00:56:10;;;;;;;5.50;2.45;;;;;;;16.45;100.00;95534.63;6067969;23;20102;-96
2021/08/17 00:58:36;;;;;;;4.95;2.17;;;;;;;16.55;100.00;95578.13;6092045;23;20282;-96
2021/08/17 01:01:02;;;;;;;3.40;2.15;;;;;;;16.48;100.00;95576.72;6068011;23;20003;-96
2021/08/17 01:03:29;;;;;;;4.03;2.60;;;;;;;16.75;100.00;95616.81;6068237;23;20007;-96
2021/08/17 01:05:57;;;;;;;3.50;2.35;;;;;;;16.31;100.00;95568.69;6067981;23;20014;-96
2021/08/17 01:08:23;;;;;;;5.47;2.50;;;;;;;16.22;100.00;95563.53;6068446;23;20361;-96
2021/08/17 01:10:48;;;;;;;4.53;2.90;;;;;;;16.49;100.00;95591.91;6068125;23;20030;-96
2021/08/17 01:13:13;;;;;;;5.10;2.90;;;;;;;16.42;100.00;95598.72;6068148;23;20015;-96
2021/08/17 01:15:39;;;;;;;5.20;2.60;;;;;;;16.18;100.00;95579.53;6092097;23;20007;-96
2021/08/17 01:18:07;;;;;;;4.13;2.45;;;;;;;16.17;100.00;95572.56;6068074;23;20010;-96
2021/08/17 01:20:34;;;;;;;3.95;2.50;;;;;;;16.26;100.00;95583.19;6069075;23;20006;-96
2021/08/17 01:22:59;;;;;;;8.07;3.20;;;;;;;16.44;100.00;95552.34;6068072;23;20086;-96
2021/08/17 01:25:25;;;;;;;7.35;2.92;;;;;;;16.19;100.00;95524.25;6067984;23;20130;-96
2021/08/17 01:27:50;;;;;;;5.15;3.15;;;;;;;16.19;100.00;95545.38;6091992;23;20090;-96
2021/08/17 01:30:16;;;;;;;6.20;3.42;;;;;;;16.01;100.00;95513.22;6091706;23;20011;-96
2021/08/17 01:32:47;;;;;;;6.40;3.35;;;;;;;16.24;100.00;95547.31;6094746;23;20002;-96
2021/08/17 01:35:13;;;;;;;6.50;3.35;;;;;;;16.36;100.00;95586.34;6072860;23;20443;-96
2021/08/17 01:37:38;;;;;;;7.32;3.30;;;;;;;16.34;100.00;95594.31;6096679;23;20006;-96
2021/08/17 01:40:07;;;;;;;7.80;3.22;;;;;;;16.28;100.00;95615.53;6072616;23;20093;-96
2021/08/17 01:42:32;;;;;;;6.95;3.00;;;;;;;16.02;100.00;95578.41;6072518;23;20082;-96
2021/08/17 01:44:58;;;;;;;6.30;3.08;;;;;;;15.87;100.00;95556.16;6096848;23;20030;-96
2021/08/17 01:47:31;;;;;;;4.47;2.85;;;;;;;15.87;100.00;95578.81;6072909;23;20011;-96
2021/08/17 01:50:01;;;;;;;3.92;3.10;;;;;;;16.30;100.00;95632.19;6072905;23;20002;-96
2021/08/17 01:52:27;;;;;;;6.82;3.45;;;;;;;15.73;100.00;95535.41;6074623;23;20016;-96
2021/08/17 01:54:53;;;;;;;6.18;3.35;;;;;;;16.06;100.00;95586.38;6074513;23;20017;-96
2021/08/17 01:57:18;;;;;;;7.13;3.53;;;;;;;16.00;100.00;95572.00;6074465;23;20006;-96
2021/08/17 01:59:43;;;;;;;4.85;3.33;;;;;;;15.93;100.00;95554.88;6074450;23;20089;-96
2021/08/17 02:02:09;;;;;;;7.47;3.50;;;;;;;15.96;100.00;95594.91;6075716;23;20042;-96
2021/08/17 02:04:35;;;;;;;6.80;2.97;;;;;;;15.76;100.00;95567.19;6074432;23;20007;-96
2021/08/17 02:07:02;;;;;;;6.70;3.67;;;;;;;16.19;100.00;95641.25;6074596;23;20038;-96
2021/08/17 02:09:27;;;;;;;5.07;3.03;;;;;;;15.67;100.00;95560.81;6074551;23;20072;-96
2021/08/17 02:11:53;;;;;;;5.28;3.00;;;;;;;15.95;100.00;95595.41;6074332;23;20010;-93
2021/08/17 02:14:18;;;;;;;5.88;3.20;;;;;;;15.70;100.00;95570.00;6074268;23;20014;-96
2021/08/17 02:16:43;;;;;;;6.22;3.00;;;;;;;15.78;100.00;95597.56;6098235;23;20010;-96
2021/08/17 02:19:09;;;;;;;5.95;3.05;;;;;;;16.21;100.00;95649.72;6074200;23;20006;-96
2021/08/17 02:21:34;;;;;;;5.18;3.10;;;;;;;15.80;100.00;95606.75;6074046;23;20081;-96
2021/08/17 02:24:00;;;;;;;4.45;3.17;;;;;;;15.71;100.00;95601.56;6074128;23;20006;-95
2021/08/17 02:26:25;;;;;;;4.82;3.42;;;;;;;15.68;100.00;95603.34;6073960;23;20007;-96
2021/08/17 02:28:51;;;;;;;6.40;3.20;;;;;;;16.00;100.00;95643.19;6074266;23;20021;-96
2021/08/17 02:31:16;;;;;;;5.55;3.58;;;;;;;16.00;100.00;95643.19;6073932;23;20085;-96
2021/08/17 02:33:42;;;;;;;4.75;3.08;;;;;;;16.08;100.00;95636.63;6073998;23;20068;-96
2021/08/17 02:36:07;;;;;;;4.18;3.17;;;;;;;15.68;100.00;95586.94;6074070;23;20007;-96
2021/08/17 02:38:36;;;;;;;5.18;3.72;;;;;;;16.04;100.00;95617.00;6081004;23;20006;-96
2021/08/17 02:41:02;;;;;;;5.80;3.78;;;;;;;15.98;100.00;95591.66;6078906;23;20464;-95
2021/08/17 02:50:25;;;;;;;7.95;4.22;;;;;;;16.46;100.00;95612.88;6068703;23;20009;-96
2021/08/17 02:52:51;;;;;;;8.07;3.45;;;;;;;16.19;100.00;95625.59;6044767;23;20007;-95
2021/08/17 02:55:17;;;;;;;5.80;3.38;;;;;;;15.93;100.00;95615.09;6044390;23;20022;-96
2021/08/17 02:57:50;;;;;;;5.90;2.95;;;;;;;15.57;100.00;95606.16;6085364;23;20012;-95
2021/08/17 03:00:16;;;;;;;4.82;3.35;;;;;;;15.62;100.00;95618.31;6074252;23;20034;-95
2021/08/17 03:02:42;;;;;;;5.68;3.35;;;;;;;15.63;100.00;95592.44;6073808;23;20045;-95
2021/08/17 03:05:08;;;;;;;6.20;3.47;;;;;;;15.78;100.00;95567.44;6073843;23;20010;-94
2021/08/17 03:07:33;;;;;;;6.97;3.90;;;;;;;16.11;100.00;95582.84;6073678;23;20432;-95
2021/08/17 03:09:59;;;;;;;8.88;5.53;;;;;;;15.87;100.00;95512.34;6073931;23;20026;-95
2021/08/17 03:12:27;;;;;;;6.40;4.15;;;;;;;15.91;100.00;95499.88;6073928;23;20459;-96
2021/08/17 03:14:52;;;;;;;8.18;4.30;;;;;;;15.89;100.00;95542.72;6074457;23;20046;-95
2021/08/17 03:17:19;;;;;;;6.50;3.47;;;;;;;15.61;100.00;95543.69;6073551;23;20010;-94
2021/08/17 03:19:45;;;;;;;5.90;3.80;;;;;;;15.83;100.00;95586.56;6073812;23;20006;-95
2021/08/17 03:22:10;;;;;;;6.03;3.45;;;;;;;15.46;100.00;95546.78;6097409;23;20086;-96
2021/08/17 03:24:35;;;;;;;5.45;3.90;;;;;;;15.49;100.00;95538.78;6073730;23;20006;-96
2021/08/17 03:27:01;;;;;;;6.28;3.88;;;;;;;15.58;100.00;95582.25;6073911;23;19999;-96
2021/08/17 03:29:27;;;;;;;9.52;4.28;;;;;;;15.53;100.00;95586.50;6073773;23;20470;-95
2021/08/17 03:31:52;;;;;;;3.92;3.30;;;;;;;15.52;100.00;95589.75;6073741;23;20069;-96
2021/08/17 03:34:18;;;;;;;8.63;3.67;;;;;;;15.41;100.00;95569.44;6073369;23;20027;-95
2021/08/17 03:36:43;;;;;;;7.07;4.55;;;;;;;15.73;100.00;95609.31;6073673;23;20006;-95
2021/08/17 03:39:09;;;;;;;7.45;4.30;;;;;;;15.92;100.00;95637.50;6073482;23;20045;-95
2021/08/17 03:41:34;;;;;;;8.48;4.15;;;;;;;15.42;100.00;95570.19;6073458;23;20003;-95
2021/08/17 03:44:00;;;;;;;5.25;3.88;;;;;;;15.70;100.00;95613.78;6073766;23;20007;-96
2021/08/17 03:46:27;;;;;;;6.32;3.45;;;;;;;15.93;100.00;95644.50;6073816;23;20013;-94
2021/08/17 03:48:56;;;;;;;6.47;3.38;;;;;;;15.50;100.00;95587.53;6073644;23;20491;-95
2021/08/17 03:51:22;;;;;;;6.22;3.72;;;;;;;15.28;100.00;95577.47;6073656;23;19999;-95
2021/08/17 03:53:47;;;;;;;6.50;3.75;;;;;;;15.34;100.00;95585.63;6073193;23;20141;-94
2021/08/17 03:56:13;;;;;;;7.97;3.70;;;;;;;15.27;100.00;95600.59;6073487;23;20002;-95
2021/08/17 03:58:39;;;;;;;6.70;4.00;;;;;;;15.58;100.00;95653.41;6073288;23;20010;-94
2021/08/17 04:01:04;;;;;;;7.88;4.03;;;;;;;15.46;100.00;95641.78;6074370;23;20029;-95
2021/08/17 04:03:29;;;;;;;7.78;4.97;;;;;;;15.64;100.00;95654.88;6097385;23;20025;-95
2021/08/17 04:05:55;;;;;;;5.63;4.07;;;;;;;15.32;100.00;95597.09;6073170;23;20011;-96
2021/08/17 04:08:20;;;;;;;10.50;4.60;;;;;;;15.29;100.00;95589.91;6073219;23;20006;-96
2021/08/17 04:10:47;;;;;;;7.13;4.72;;;;;;;15.52;100.00;95628.81;6073195;23;20009;-96
2021/08/17 04:13:13;;;;;;;7.82;5.03;;;;;;;15.82;100.00;95669.94;6096760;23;20081;-95
2021/08/17 04:15:38;;;;;;;9.70;4.30;;;;;;;15.39;100.00;95637.59;6073153;23;20033;-95
2021/08/17 04:18:04;;;;;;;5.55;3.47;;;;;;;15.35;100.00;95669.22;6073087;23;20070;-95
2021/08/17 04:20:36;;;;;;;8.57;4.05;;;;;;;15.61;100.00;95693.44;6074826;23;20024;-96
2021/08/17 04:23:02;;;;;;;8.48;4.30;;;;;;;15.41;100.00;95670.66;6073890;23;20002;-94
2021/08/17 04:25:28;;;;;;;6.45;4.10;;;;;;;15.54;100.00;95672.09;6073239;23;20002;-95
2021/08/17 04:27:53;;;;;;;7.35;3.70;;;;;;;15.58;100.00;95695.19;6073241;23;20013;-96
2021/08/17 04:30:19;;;;;;;5.97;3.78;;;;;;;15.51;100.00;95697.72;6073084;23;20693;-95
2021/08/17 04:32:44;;;;;;;7.20;3.70;;;;;;;15.62;100.00;95706.63;6072656;23;20014;-95
2021/08/17 04:35:10;;;;;;;8.93;4.97;;;;;;;15.55;100.00;95662.63;6072855;23;20006;-94
2021/08/17 04:37:38;;;;;;;6.72;4.75;;;;;;;15.39;100.00;95613.00;6072930;23;20439;-94
2021/08/17 04:40:03;;;;;;;10.18;5.13;;;;;;;15.82;100.00;95647.28;6072597;23;20007;-93
2021/08/17 04:42:29;;;;;;;8.88;4.55;;;;;;;15.58;100.00;95635.00;6073014;23;20503;-95
2021/08/17 04:44:54;;;;;;;8.27;4.10;;;;;;;15.67;100.00;95664.09;6073039;23;20450;-96
2021/08/17 04:47:20;;;;;;;7.60;4.15;;;;;;;15.52;100.00;95672.59;6073038;23;20010;-95
2021/08/17 04:49:45;;;;;;;8.90;4.18;;;;;;;15.56;100.00;95700.44;6072730;23;20052;-95
2021/08/17 04:52:11;;;;;;;9.30;4.90;;;;;;;15.49;100.00;95692.00;6072759;23;20006;-94
2021/08/17 04:54:38;;;;;;;11.98;4.47;;;;;;;15.36;100.00;95665.22;6072683;23;20447;-96
2021/08/17 04:57:04;;;;;;;8.73;4.28;;;;;;;15.25;100.00;95657.81;6072824;23;20073;-95
2021/08/17 04:59:29;;;;;;;6.25;3.78;;;;;;;15.27;100.00;95660.78;6072608;23;20002;-96
2021/08/17 05:01:55;;;;;;;5.57;3.58;;;;;;;15.52;100.00;95685.53;6072865;23;20007;-96
2021/08/17 05:04:20;;;;;;;8.48;3.72;;;;;;;15.42;100.00;95685.81;6072619;23;20054;-95
2021/08/17 05:06:45;;;;;;;6.72;4.00;;;;;;;15.57;100.00;95685.50;6072829;23;20065;-96
2021/08/17 05:09:11;;;;;;;6.78;4.65;;;;;;;15.75;100.00;95703.34;6074168;23;20026;-96
2021/08/17 05:11:40;;;;;;;6.88;4.90;;;;;;;15.78;100.00;95696.84;6074727;23;20489;-95
2021/08/17 05:14:09;;;;;;;8.85;4.88;;;;;;;15.25;100.00;95622.25;6073115;23;20006;-96
2021/08/17 05:16:35;;;;;;;6.80;4.40;;;;;;;15.60;100.00;95684.47;6073524;23;20013;-95
2021/08/17 05:19:00;;;;;;;6.75;4.20;;;;;;;15.65;100.00;95694.69;6073193;23;20014;-95
2021/08/17 05:21:26;;;;;;;11.15;4.80;;;;;;;15.55;100.00;95687.25;6072648;23;20006;-94
2021/08/17 05:23:51;;;;;;;7.00;4.35;;;;;;;15.51;100.00;95682.06;6072774;23;20017;-93
2021/08/17 05:26:17;;;;;;;9.23;4.82;;;;;;;15.79;100.00;95722.22;6073749;23;20050;-96
2021/08/17 05:28:43;;;;;;;5.80;3.70;;;;;;;15.39;100.00;95664.97;6074650;23;20016;-96
2021/08/17 05:31:08;;;;;;;5.18;3.85;;;;;;;15.44;100.00;95655.22;6075289;23;20052;-96
2021/08/17 05:33:33;;;;;;;7.28;4.03;;;;;;;15.37;100.00;95645.56;6074321;23;20018;-95
2021/08/17 05:35:59;;;;;;;6.20;3.78;;;;;;;15.40;100.00;95643.81;6074619;23;20010;-96
2021/08/17 05:38:24;;;;;;;6.55;3.88;;;;;;;15.48;100.00;95660.44;6074325;23;20006;-96
2021/08/17 05:40:50;;;;;;;6.18;3.90;;;;;;;15.41;100.00;95646.03;6074323;23;20011;-95
2021/08/17 05:43:15;;;;;;;5.93;4.28;;;;;;;15.46;100.00;95633.59;6074302;23;20010;-93
2021/08/17 05:45:41;;;;;;;8.95;4.85;;;;;;;15.75;100.00;95650.59;6097583;23;20007;-94
2021/08/17 05:48:06;;;;;;;8.48;5.20;;;;;;;15.71;100.00;95664.53;6074788;23;20006;-94
2021/08/17 05:50:32;;;;;;;8.10;5.00;;;;;;;15.71;100.00;95672.75;6074868;23;20002;-93
2021/08/17 05:52:57;;;;;;;8.55;5.10;;;;;;;15.94;100.00;95714.41;6074262;23;20006;-95
2021/08/17 05:55:23;;;;;;;7.20;5.18;;;;;;;15.63;100.00;95669.81;6074410;23;20060;-95
2021/08/17 05:57:56;;;;;;;12.30;6.00;;;;;;;15.63;100.00;95671.81;6074433;23;20006;-96
2021/08/17 06:00:22;;;;;;;8.05;4.90;;;;;;;15.44;100.00;95655.22;6074190;23;20431;-94
2021/08/17 06:02:47;;;;;;;7.32;5.22;;;;;;;15.81;100.00;95706.03;6072553;23;20026;-93
2021/08/17 06:05:13;;;;;;;7.40;4.80;;;;;;;15.66;100.00;95687.22;6097797;23;20014;-93
2021/08/17 06:07:48;;;;;;;8.60;4.78;;;;;;;15.79;100.00;95703.06;6074326;23;20010;-93
2021/08/17 06:10:15;;;;;;;7.30;4.22;;;;;;;15.61;100.00;95682.50;6074320;23;19999;-93
2021/08/17 06:12:40;;;;;;;7.22;4.38;;;;;;;16.12;100.00;95745.91;6074369;23;20002;-93
2021/08/17 06:15:07;;;;;;;7.47;4.75;;;;;;;16.01;100.00;95729.56;6073963;23;20009;-95
2021/08/17 06:17:32;;;;;;;7.32;3.55;;;;;;;15.68;100.00;95695.66;6074114;23;20010;-93
2021/08/17 06:19:58;;;;;;;6.32;3.80;;;;;;;15.87;100.00;95707.50;6074061;23;20074;-93
2021/08/17 06:22:23;;;;;;;8.55;3.63;;;;;;;15.73;100.00;95688.69;6073938;23;20002;-94
2021/08/17 06:24:49;;;;;;;5.00;3.38;;;;;;;15.85;100.00;95704.50;6074236;23;20018;-94
2021/08/17 06:27:16;;;;;;;8.35;3.50;;;;;;;15.71;100.00;95689.16;6073974;23;20002;-94
2021/08/17 06:29:41;;;;;;;6.50;3.45;;;;;;;15.61;100.00;95657.88;6073904;23;20030;-93
2021/08/17 06:32:07;;;;;;;4.65;3.65;;;;;;;16.08;100.00;95715.31;6073880;23;20018;-93
2021/08/17 06:34:32;;;;;;;6.03;4.03;;;;;;;15.88;100.00;95689.81;6073616;23;20030;-93
2021/08/17 06:36:58;;;;;;;5.80;3.00;;;;;;;15.91;100.00;95677.84;6073953;23;20455;-94
2021/08/17 06:39:23;;;;;;;4.38;3.10;;;;;;;15.87;100.00;95674.66;6073893;23;20010;-95
2021/08/17 06:41:49;;;;;;;5.07;3.67;;;;;;;15.96;100.00;95687.25;6073920;23;20014;-95
2021/08/17 06:44:15;;;;;;;4.70;3.00;;;;;;;15.94;100.00;95676.81;6073944;23;20010;-95
2021/08/17 06:46:40;;;;;;;6.18;3.80;;;;;;;16.12;100.00;95691.13;6073798;23;20013;-95
2021/08/17 06:49:06;;;;;;;4.93;2.92;;;;;;;16.23;100.00;95712.94;6073671;23;20010;-95
2021/08/17 06:51:31;;;;;;;6.25;3.72;;;;;;;16.35;100.00;95724.56;6094001;23;20002;-94
2021/08/17 06:53:57;;;;;;;4.47;3.63;;;;;;;16.00;100.00;95673.31;6073479;23;20101;-96
2021/08/17 06:56:22;;;;;;;5.93;3.60;;;;;;;16.45;100.00;95745.63;6074058;23;20010;-96
2021/08/17 06:58:48;;;;;;;4.65;3.00;;;;;;;16.14;97.56;95697.59;6073396;23;20017;-95
2021/08/17 07:01:14;;;;;;;4.72;3.17;;;;;;;16.40;100.00;95727.25;6073881;23;20006;-96
2021/08/17 07:03:39;;;;;;;5.80;3.50;;;;;;;16.60;97.30;95769.19;6073863;23;20006;-96
2021/08/17 07:06:05;;;;;;;5.80;3.75;;;;;;;16.33;100.00;95705.91;6074067;23;20041;-96
2021/08/17 07:08:31;;;;;;;6.65;3.80;;;;;;;16.16;100.00;95669.69;6075060;23;20009;-96
2021/08/17 07:10:57;;;;;;;7.00;3.55;;;;;;;16.75;100.00;95747.66;6074064;23;20017;-95
2021/08/17 07:13:24;;;;;;;7.22;4.35;;;;;;;16.72;100.00;95726.75;6074105;23;20339;-95
2021/08/17 07:15:50;;;;;;;6.82;4.30;;;;;;;16.75;98.86;95715.50;6074152;23;20016;-96
2021/08/17 07:18:16;;;;;;;5.15;4.10;;;;;;;16.59;100.00;95680.00;6074095;23;20038;-96
2021/08/17 07:20:42;;;;;;;3.95;2.63;;;;;;;16.46;90.58;95677.91;6073826;23;20344;-96
2021/08/17 07:23:07;;;;;;;7.50;4.00;;;;;;;17.13;99.06;95748.53;6073895;23;20006;-95
2021/08/17 07:25:35;;;;;;;8.45;4.07;;;;;;;16.56;100.00;95648.88;6073706;23;20017;-96
2021/08/17 07:28:01;;;;;;;6.30;4.25;;;;;;;16.62;100.00;95649.59;6073989;23;20006;-96
2021/08/17 07:30:26;;;;;;;5.55;3.80;;;;;;;17.20;100.00;95728.72;6074149;23;20415;-96
2021/08/17 07:32:52;;;;;;;6.50;3.80;;;;;;;17.10;100.00;95702.16;6073807;23;20108;-95
2021/08/17 07:35:18;;;;;;;9.57;3.58;;;;;;;16.85;99.86;95695.97;6073834;23;20084;-96
2021/08/17 07:37:45;;;;;;;5.65;3.28;;;;;;;17.27;99.24;95758.34;6073795;23;20013;-96
2021/08/17 07:40:14;;;;;;;4.60;2.58;;;;;;;17.31;88.46;95755.31;6074761;23;20029;-96
2021/08/17 07:42:40;;;;;;;5.57;3.35;;;;;;;17.32;100.00;95753.31;6073810;23;20038;-96
2021/08/17 07:45:08;;;;;;;6.75;3.42;;;;;;;16.99;96.98;95703.03;6074137;23;20014;-96
2021/08/17 07:47:34;;;;;;;4.68;3.10;;;;;;;17.08;96.04;95751.31;6073383;23;20090;-96
2021/08/17 07:50:00;;;;;;;4.13;2.80;;;;;;;16.57;91.48;95693.50;6073940;23;20006;-95
2021/08/17 07:52:25;;;;;;;5.30;2.95;;;;;;;16.75;89.68;95734.69;6074084;23;20006;-96
2021/08/17 07:54:50;;;;;;;4.72;3.10;;;;;;;16.72;94.73;95743.19;6074142;23;20009;-95
2021/08/17 07:57:16;;;;;;;5.65;3.20;;;;;;;16.79;90.19;95750.13;6074024;23;20317;-96
2021/08/17 07:59:41;;;;;;;4.30;2.53;;;;;;;16.59;91.74;95746.53;6073807;23;20013;-96
2021/08/17 08:02:07;;;;;;;8.07;3.40;;;;;;;16.60;100.00;95730.81;6073753;23;20006;-96
2021/08/17 08:04:33;;;;;;;6.95;3.40;;;;;;;16.19;98.77;95672.16;6075355;23;20009;-95
2021/08/17 08:06:59;;;;;;;3.85;2.85;;;;;;;16.74;99.02;95760.63;6074647;23;20013;-96
2021/08/17 08:09:24;;;;;;;5.22;3.25;;;;;;;16.41;100.00;95709.56;6073885;23;20331;-94
2021/08/17 08:11:50;;;;;;;3.92;2.60;;;;;;;16.95;96.90;95795.84;6073556;23;20003;-95
2021/08/17 08:14:15;;;;;;;3.97;3.00;;;;;;;16.74;100.00;95768.84;6073122;23;20010;-95
2021/08/17 08:16:41;;;;;;;3.95;2.65;;;;;;;16.27;95.24;95726.38;6076649;23;20085;-96
2021/08/17 08:19:10;;;;;;;5.18;2.42;;;;;;;16.18;92.75;95721.94;6078623;23;20071;-96
2021/08/17 08:21:37;;;;;;;6.80;3.08;;;;;;;16.58;99.94;95793.66;6081106;23;20013;-95
2021/08/17 08:24:02;;;;;;;4.13;2.97;;;;;;;16.66;95.99;95789.81;6073121;23;20305;-96
2021/08/17 08:26:28;;;;;;;3.58;2.30;;;;;;;16.68;93.80;95773.63;6073174;23;20009;-95
2021/08/17 08:32:15;;;;;;;3.15;2.28;;;;;;;16.65;92.86;95790.34;6098774;23;20010;-95
2021/08/17 08:34:41;;;;;;;8.05;2.90;;;;;;;16.54;100.00;95795.91;6072918;23;20018;-96
2021/08/17 08:37:07;;;;;;;5.22;2.65;;;;;;;16.76;97.48;95834.88;6073056;23;20018;-96
2021/08/17 08:39:33;;;;;;;4.22;2.67;;;;;;;16.59;97.13;95842.47;6073036;23;20026;-96
2021/08/17 08:41:59;;;;;;;3.92;2.72;;;;;;;16.31;95.52;95817.25;6073234;23;20011;-96
2021/08/17 08:44:25;;;;;;;4.90;2.90;;;;;;;15.84;100.00;95762.53;6071888;23;20006;-95
2021/08/17 08:46:51;;;;;;;7.85;3.10;;;;;;;15.86;99.00;95793.59;6073158;23;20010;-96
2021/08/17 08:49:18;;;;;;;4.65;2.05;;;;;;;16.13;94.43;95867.91;6073310;23;20010;-96
2021/08/17 08:51:43;;;;;;;2.40;1.90;;;;;;;15.69;91.98;95803.91;6073843;23;20049;-95
2021/08/17 08:54:09;;;;;;;1.80;1.40;;;;;;;16.01;91.80;95900.09;6073195;23;20451;-95
2021/08/17 08:56:35;;;;;;;1.67;1.15;;;;;;;15.84;88.84;95891.19;6073424;23;20002;-96
2021/08/17 08:59:01;;;;;;;3.40;1.08;;;;;;;15.46;94.47;95847.00;6073767;23;20498;-94
2021/08/17 09:01:27;;;;;;;2.05;1.30;;;;;;;15.18;90.93;95820.47;6073160;23;20018;-95
2021/08/17 09:03:56;;;;;;;1.15;0.80;;;;;;;15.26;88.60;95834.34;6073781;23;20010;-96
2021/08/17 09:06:33;;;;;;;1.73;1.23;;;;;;;15.26;94.03;95811.72;6078652;23;20002;-96
2021/08/17 09:09:51;;;;;;;2.78;1.40;;;;;;;15.92;96.09;95886.66;6094216;23;20014;-96
2021/08/17 09:12:53;;;;;;;1.35;0.73;;;;;;;15.59;84.85;95830.03;6113255;23;20037;-96
2021/08/17 09:15:46;;;;;;;1.40;0.80;;;;;;;16.66;87.30;95970.00;6119905;23;20031;-96
2021/08/17 09:18:19;;;;;;;0.60;0.60;;;;;;;15.79;85.49;95832.47;6118966;23;20002;-96
2021/08/17 09:27:37;;;;;;;0.40;0.40;;;;;;;16.39;86.21;95859.28;6031647;23;20044;-96
2021/08/17 09:30:16;;;;;;;1.67;0.40;;;;;;;17.14;89.98;95947.53;6009980;23;20004;-96
2021/08/17 09:32:51;;;;;;;;;;;;;;;17.24;86.16;95997.34;6026370;23;20023;-96
2021/08/17 09:35:22;;;;;;;0.52;0.45;;;;;;;16.36;84.37;95857.59;6030140;23;19942;-96
2021/08/17 09:38:18;;;;;;;0.40;0.40;;;;;;;16.94;78.66;95931.50;6007616;23;20012;-96
2021/08/17 09:40:44;;;;;;;1.20;0.43;;;;;;;16.71;74.43;95950.06;6028822;23;20007;-96
2021/08/17 09:43:32;;;;;;;2.47;0.40;;;;;;;17.09;82.80;96025.13;5957789;24;20064;-96
2021/08/17 09:46:13;;;;;;;1.30;0.68;;;;;;;16.46;81.65;95910.84;5978652;24;20019;-96
2021/08/17 09:48:48;;;;;;;0.57;0.40;;;;;;;16.81;79.18;95950.50;6001997;24;20016;-96
2021/08/17 09:51:40;;;;;;;0.45;0.40;;;;;;;16.54;82.93;95930.22;6002015;24;20059;-96
2021/08/17 09:54:15;;;;;;;3.20;0.70;;;;;;;16.41;77.67;95961.69;5999281;24;20016;-96
2021/08/17 09:56:44;;;;;;;3.75;0.70;;;;;;;15.87;77.70;95901.91;5999889;24;20079;-95
2021/08/17 09:59:20;;;;;;;2.13;0.70;;;;;;;16.17;80.72;95926.66;6081446;23;20035;-96
2021/08/17 10:01:49;;;;;;;0.68;0.50;;;;;;;16.17;80.72;95926.66;6085976;23;20062;-96
2021/08/17 10:04:18;;;;;;;1.35;0.70;;;;;;;16.06;82.92;95909.53;6089024;23;20011;-95
2021/08/17 15:43:23;;;;;;;2.10;1.60;;;;;;;23.21;43.69;96133.84;6062035;23;20453;-94
2021/08/17 15:45:48;;;;;;;2.63;1.55;;;;;;;24.00;43.99;96118.34;6073380;23;20041;-93
2021/08/17 15:48:14;;;;;;;3.13;1.70;;;;;;;24.37;42.17;96061.41;6073834;23;20007;-96
2021/08/17 15:50:43;;;;;;;3.50;1.60;;;;;;;23.93;41.71;96096.91;6074664;23;20010;-95
2021/08/17 15:53:09;;;;;;;5.50;1.70;;;;;;;24.10;39.76;96079.72;6074621;23;20014;-94
2021/08/17 15:55:35;;;;;;;2.97;1.55;;;;;;;24.88;42.20;96054.06;6073707;23;20034;-92
2021/08/17 15:58:00;;;;;;;2.13;1.40;;;;;;;25.27;34.02;96105.41;6073341;23;20017;-93
2021/08/17 16:00:26;;;;;;;1.90;1.20;;;;;;;24.74;35.84;96084.09;6073250;23;20427;-94
2021/08/17 16:02:53;;;;;;;3.17;1.38;;;;;;;25.01;41.57;96085.09;6075633;23;20344;-95
2021/08/17 16:05:19;;;;;;;4.70;1.65;;;;;;;24.74;38.85;96064.66;6078301;23;20010;-96
2021/08/17 16:08:19;;;;;;;4.22;1.55;;;;;;;25.21;40.36;96150.06;6074203;23;20440;-94
2021/08/17 16:10:44;;;;;;;1.70;1.20;;;;;;;23.30;37.12;96113.19;6073830;23;20087;-96
2021/08/17 16:13:10;;;;;;;2.13;1.20;;;;;;;22.62;40.43;96144.75;6073328;23;20011;-96
2021/08/17 16:15:35;;;;;;;2.47;1.30;;;;;;;21.67;44.33;96098.81;6073256;23;20089;-96
2021/08/17 16:18:01;;;;;;;3.20;1.48;;;;;;;21.15;46.94;96132.84;6073246;23;20010;-96
2021/08/17 16:20:27;;;;;;;2.95;1.40;;;;;;;20.90;43.67;96129.56;6074711;23;20006;-96
2021/08/17 16:22:54;;;;;;;2.00;1.38;;;;;;;20.56;45.94;96129.47;6073237;23;20006;-95
2021/08/17 16:25:21;;;;;;;3.50;1.30;;;;;;;20.31;49.74;96154.44;6073318;23;20010;-95
2021/08/17 16:27:47;;;;;;;2.88;1.17;;;;;;;19.97;48.42;96145.97;6073291;23;20011;-96
2021/08/17 16:30:15;;;;;;;2.45;1.30;;;;;;;19.66;52.08;96110.94;6073506;23;20065;-95
2021/08/17 16:32:43;;;;;;;2.03;1.30;;;;;;;19.62;47.63;96141.53;6074016;23;20006;-95
2021/08/17 16:35:10;;;;;;;2.83;1.40;;;;;;;18.91;47.97;96084.13;6074863;23;20006;-93
2021/08/17 16:37:36;;;;;;;2.80;1.58;;;;;;;18.51;52.70;96037.84;6076995;23;20089;-95
2021/08/17 16:40:04;;;;;;;3.25;1.50;;;;;;;18.76;50.44;96120.34;6075950;23;20491;-95
2021/08/17 16:42:31;;;;;;;2.33;1.80;;;;;;;18.61;56.56;96131.72;6074428;23;20018;-95
2021/08/17 16:44:57;;;;;;;3.25;1.40;;;;;;;18.46;58.86;96110.13;6074320;23;20316;-96
2021/08/17 16:47:23;;;;;;;2.45;1.50;;;;;;;18.19;54.91;96111.91;6099917;23;20011;-96
2021/08/17 16:49:54;;;;;;;3.55;1.52;;;;;;;18.14;57.01;96139.44;6075218;23;20332;-96
2021/08/17 16:52:19;;;;;;;;;;;;;;;18.12;58.24;96159.19;6082352;23;20010;-96
2021/08/17 16:54:52;;;;;;;3.75;1.45;;;;;;;17.49;57.12;96073.00;6077122;23;20346;-96
2021/08/17 16:57:18;;;;;;;2.33;1.55;;;;;;;17.02;55.57;96036.66;6083988;23;20038;-96
2021/08/17 16:59:47;;;;;;;1.88;1.48;;;;;;;17.43;58.76;96107.25;6078669;23;20006;-96
